Anglian Lady — VOLP — position and weather

sailwx.info

Track history (hours):
 
Tides and Currents Weather Stations Pressure Air Temp Water Temp Dewpoint Dewpoint Depression Visibility Wind Speed Wind Dir Waves Ship Positions

Anglian Lady

Last reported at 2017-Dec-12 15:12 UTC. Time now 2017-Dec-16 05:32 UTC.
Position N 45°52' W 085°08'.

Length 32 m.

Type: Tug. MMSI: 316002238.

Date/timePositionNaut miles runAvg speedWind from/ knotsBaromVisibWave heightAir tempDewpointWater temp
2017-Dec-12 15:12N 45°52' W 085°08'1 5.5
2017-Dec-12 15:00N 45°51' W 085°06'6 5.6
2017-Dec-12 13:52N 45°50' W 084°57'2 5.6
2017-Dec-12 13:30N 45°50' W 084°54'3 5.5
2017-Dec-12 13:00N 45°50' W 084°51'3 5.3
2017-Dec-12 12:25N 45°49' W 084°46'2 3.7
2017-Dec-12 11:59N 45°49' W 084°44'  
2017-Dec-04 07:21N 45°52' W 084°13'2 5.5
2017-Dec-04 07:00N 45°52' W 084°15'3 5.5
2017-Dec-04 06:30N 45°51' W 084°19'3 5.4
2017-Dec-04 06:00N 45°51' W 084°23'3 5.6
2017-Dec-04 05:30N 45°51' W 084°27'3 5.8
2017-Dec-04 05:00N 45°51' W 084°31'3 6.1
2017-Dec-04 04:30N 45°51' W 084°36'3 6.3
2017-Dec-04 04:00N 45°50' W 084°40'3 6.0
2017-Dec-04 03:30N 45°49' W 084°44'3 6.2
2017-Dec-04 03:00N 45°49' W 084°49'3 6.3
2017-Dec-04 02:30N 45°49' W 084°53'3 6.3
2017-Dec-04 02:00N 45°49' W 084°58'3 6.3
2017-Dec-04 01:30N 45°50' W 085°02'3 6.3
2017-Dec-04 01:00N 45°50' W 085°07'3 5.5
2017-Dec-04 00:30N 45°47' W 085°09'3 6.1
2017-Dec-04 00:00N 45°44' W 085°10'3 6.5
2017-Dec-03 23:30N 45°42' W 085°13'3 6.1
2017-Dec-03 23:00N 45°39' W 085°16'3 6.5
2017-Dec-03 22:30N 45°37' W 085°18'3 6.6
2017-Dec-03 22:00N 45°34' W 085°21'3 6.6
2017-Dec-03 21:30N 45°31' W 085°24'3 6.7
2017-Dec-03 21:00N 45°29' W 085°27'3 6.5
2017-Dec-03 20:30N 45°26' W 085°30'3 6.6
2017-Dec-03 20:01N 45°24' W 085°32'3 6.6
2017-Dec-03 19:30N 45°21' W 085°35'3 6.5
2017-Dec-03 19:00N 45°18' W 085°38'3 6.5
2017-Dec-03 18:29N 45°16' W 085°41'  
Track history (hours):
 
Tides and Currents Weather Stations Pressure Air Temp Water Temp Dewpoint Dewpoint Depression Visibility Wind Speed Wind Dir Waves Ship Positions

Anglian Lady

Last reported at 2017-Dec-12 15:12 UTC. Time now 2017-Dec-16 05:32 UTC.
Position N 45°52' W 085°08'.

Length 32 m.

Type: Tug. MMSI: 316002238.

Date/timePositionNaut miles runAvg speedWind from/ knotsBaromVisibWave heightAir tempDewpointWater temp
2017-Dec-12 15:12N 45°52' W 085°08'1 5.5
2017-Dec-12 15:00N 45°51' W 085°06'6 5.6
2017-Dec-12 13:52N 45°50' W 084°57'2 5.6
2017-Dec-12 13:30N 45°50' W 084°54'3 5.5
2017-Dec-12 13:00N 45°50' W 084°51'3 5.3
2017-Dec-12 12:25N 45°49' W 084°46'2 3.7
2017-Dec-12 11:59N 45°49' W 084°44'  
2017-Dec-04 07:21N 45°52' W 084°13'2 5.5
2017-Dec-04 07:00N 45°52' W 084°15'3 5.5
2017-Dec-04 06:30N 45°51' W 084°19'3 5.4
2017-Dec-04 06:00N 45°51' W 084°23'3 5.6
2017-Dec-04 05:30N 45°51' W 084°27'3 5.8
2017-Dec-04 05:00N 45°51' W 084°31'3 6.1
2017-Dec-04 04:30N 45°51' W 084°36'3 6.3
2017-Dec-04 04:00N 45°50' W 084°40'3 6.0
2017-Dec-04 03:30N 45°49' W 084°44'3 6.2
2017-Dec-04 03:00N 45°49' W 084°49'3 6.3
2017-Dec-04 02:30N 45°49' W 084°53'3 6.3
2017-Dec-04 02:00N 45°49' W 084°58'3 6.3
2017-Dec-04 01:30N 45°50' W 085°02'3 6.3
2017-Dec-04 01:00N 45°50' W 085°07'3 5.5
2017-Dec-04 00:30N 45°47' W 085°09'3 6.1
2017-Dec-04 00:00N 45°44' W 085°10'3 6.5
2017-Dec-03 23:30N 45°42' W 085°13'3 6.1
2017-Dec-03 23:00N 45°39' W 085°16'3 6.5
2017-Dec-03 22:30N 45°37' W 085°18'3 6.6
2017-Dec-03 22:00N 45°34' W 085°21'3 6.6
2017-Dec-03 21:30N 45°31' W 085°24'3 6.7
2017-Dec-03 21:00N 45°29' W 085°27'3 6.5
2017-Dec-03 20:30N 45°26' W 085°30'3 6.6
2017-Dec-03 20:01N 45°24' W 085°32'3 6.6
2017-Dec-03 19:30N 45°21' W 085°35'3 6.5
2017-Dec-03 19:00N 45°18' W 085°38'3 6.5
2017-Dec-03 18:29N 45°16' W 085°41'  

Dump ship's entire track history